sensor_id;sensor_type;location;lat;lon;timestamp;temperature;humidity
15609;DHT22;64278;45.642;13.756;2023-02-28T00:45:54;21.50;48.70
15609;DHT22;64278;45.642;13.756;2023-02-28T00:48:19;21.50;48.80
15609;DHT22;64278;45.642;13.756;2023-02-28T00:50:48;21.40;48.70
15609;DHT22;64278;45.642;13.756;2023-02-28T00:53:14;21.40;48.70
15609;DHT22;64278;45.642;13.756;2023-02-28T00:55:40;21.40;48.70
15609;DHT22;64278;45.642;13.756;2023-02-28T00:58:05;21.40;48.70
15609;DHT22;64278;45.642;13.756;2023-02-28T01:00:31;21.40;48.70
15609;DHT22;64278;45.642;13.756;2023-02-28T01:02:57;21.40;48.70
15609;DHT22;64278;45.642;13.756;2023-02-28T01:05:22;21.40;48.70
15609;DHT22;64278;45.642;13.756;2023-02-28T01:07:48;21.40;48.70
15609;DHT22;64278;45.642;13.756;2023-02-28T01:10:14;21.40;48.70
15609;DHT22;64278;45.642;13.756;2023-02-28T01:12:39;21.40;48.80
15609;DHT22;64278;45.642;13.756;2023-02-28T01:15:05;21.40;48.70
15609;DHT22;64278;45.642;13.756;2023-02-28T01:17:31;21.30;48.60
15609;DHT22;64278;45.642;13.756;2023-02-28T01:19:57;21.30;48.70
15609;DHT22;64278;45.642;13.756;2023-02-28T01:22:22;21.30;48.70
15609;DHT22;64278;45.642;13.756;2023-02-28T01:24:48;21.30;48.70
15609;DHT22;64278;45.642;13.756;2023-02-28T01:27:14;21.30;48.70
15609;DHT22;64278;45.642;13.756;2023-02-28T01:29:39;21.30;48.80
15609;DHT22;64278;45.642;13.756;2023-02-28T01:32:05;21.30;48.70
15609;DHT22;64278;45.642;13.756;2023-02-28T01:34:31;21.30;48.90
15609;DHT22;64278;45.642;13.756;2023-02-28T01:36:56;21.30;48.80
15609;DHT22;64278;45.642;13.756;2023-02-28T01:39:24;21.30;48.90
15609;DHT22;64278;45.642;13.756;2023-02-28T01:41:50;21.20;48.70
15609;DHT22;64278;45.642;13.756;2023-02-28T01:47:19;21.20;48.70
15609;DHT22;64278;45.642;13.756;2023-02-28T01:49:45;21.20;48.70
15609;DHT22;64278;45.642;13.756;2023-02-28T01:52:12;21.20;48.80
15609;DHT22;64278;45.642;13.756;2023-02-28T01:54:45;21.20;48.80
15609;DHT22;64278;45.642;13.756;2023-02-28T01:57:18;21.20;48.80
15609;DHT22;64278;45.642;13.756;2023-02-28T01:59:47;21.20;48.80
15609;DHT22;64278;45.642;13.756;2023-02-28T02:02:17;21.10;48.70
15609;DHT22;64278;45.642;13.756;2023-02-28T02:04:55;21.20;48.80
15609;DHT22;64278;45.642;13.756;2023-02-28T02:07:23;21.10;48.80
15609;DHT22;64278;45.642;13.756;2023-02-28T02:09:56;21.10;48.80
15609;DHT22;64278;45.642;13.756;2023-02-28T02:15:07;21.10;48.80
15609;DHT22;64278;45.642;13.756;2023-02-28T02:17:48;21.10;48.80
15609;DHT22;64278;45.642;13.756;2023-02-28T02:23:13;21.10;48.80
15609;DHT22;64278;45.642;13.756;2023-02-28T02:25:53;21.10;48.80
15609;DHT22;64278;45.642;13.756;2023-02-28T02:28:34;21.10;48.90
15609;DHT22;64278;45.642;13.756;2023-02-28T02:41:14;21.00;48.90
15609;DHT22;64278;45.642;13.756;2023-02-28T02:43:50;21.00;48.80
15609;DHT22;64278;45.642;13.756;2023-02-28T02:46:34;21.00;48.80
15609;DHT22;64278;45.642;13.756;2023-02-28T02:49:06;21.00;48.80
15609;DHT22;64278;45.642;13.756;2023-02-28T02:51:35;21.00;48.80
15609;DHT22;64278;45.642;13.756;2023-02-28T02:54:23;21.00;48.80
15609;DHT22;64278;45.642;13.756;2023-02-28T02:56:57;21.00;48.80
15609;DHT22;64278;45.642;13.756;2023-02-28T02:59:25;20.90;48.90
15609;DHT22;64278;45.642;13.756;2023-02-28T03:02:01;20.90;48.90
15609;DHT22;64278;45.642;13.756;2023-02-28T03:04:33;20.90;48.80
15609;DHT22;64278;45.642;13.756;2023-02-28T03:07:00;20.90;48.80
15609;DHT22;64278;45.642;13.756;2023-02-28T03:09:26;20.90;48.80
15609;DHT22;64278;45.642;13.756;2023-02-28T03:11:55;20.90;48.80
15609;DHT22;64278;45.642;13.756;2023-02-28T03:23:07;20.90;48.90
15609;DHT22;64278;45.642;13.756;2023-02-28T03:28:38;20.80;48.80
15609;DHT22;64278;45.642;13.756;2023-02-28T03:34:03;20.80;48.80
15609;DHT22;64278;45.642;13.756;2023-02-28T03:36:41;20.80;48.70
15609;DHT22;64278;45.642;13.756;2023-02-28T03:39:22;20.80;48.80
15609;DHT22;64278;45.642;13.756;2023-02-28T03:41:59;20.80;48.80
15609;DHT22;64278;45.642;13.756;2023-02-28T03:47:29;20.80;48.80
15609;DHT22;64278;45.642;13.756;2023-02-28T03:52:34;20.80;48.80
15609;DHT22;64278;45.642;13.756;2023-02-28T03:55:09;20.80;48.80
15609;DHT22;64278;45.642;13.756;2023-02-28T03:57:54;20.80;48.90
15609;DHT22;64278;45.642;13.756;2023-02-28T04:00:27;20.80;48.80
15609;DHT22;64278;45.642;13.756;2023-02-28T04:02:54;20.80;48.90
15609;DHT22;64278;45.642;13.756;2023-02-28T04:05:21;20.70;48.90
15609;DHT22;64278;45.642;13.756;2023-02-28T04:07:47;20.70;48.80
15609;DHT22;64278;45.642;13.756;2023-02-28T04:10:13;20.70;48.80
15609;DHT22;64278;45.642;13.756;2023-02-28T04:12:40;20.70;48.80
15609;DHT22;64278;45.642;13.756;2023-02-28T04:15:06;20.70;48.80
15609;DHT22;64278;45.642;13.756;2023-02-28T04:17:32;20.70;48.80
15609;DHT22;64278;45.642;13.756;2023-02-28T04:19:57;20.70;48.80
15609;DHT22;64278;45.642;13.756;2023-02-28T04:22:23;20.70;48.70
15609;DHT22;64278;45.642;13.756;2023-02-28T04:24:51;20.70;48.70
15609;DHT22;64278;45.642;13.756;2023-02-28T04:27:20;20.60;48.70
15609;DHT22;64278;45.642;13.756;2023-02-28T04:29:46;20.70;48.70
15609;DHT22;64278;45.642;13.756;2023-02-28T04:32:12;20.60;48.70
15609;DHT22;64278;45.642;13.756;2023-02-28T04:34:37;20.60;48.70
15609;DHT22;64278;45.642;13.756;2023-02-28T04:37:03;20.60;48.60
15609;DHT22;64278;45.642;13.756;2023-02-28T04:39:29;20.60;48.60
15609;DHT22;64278;45.642;13.756;2023-02-28T04:41:55;20.60;48.60
15609;DHT22;64278;45.642;13.756;2023-02-28T04:44:21;20.60;48.60
15609;DHT22;64278;45.642;13.756;2023-02-28T04:46:48;20.60;48.60
15609;DHT22;64278;45.642;13.756;2023-02-28T04:49:14;20.60;48.60
15609;DHT22;64278;45.642;13.756;2023-02-28T04:51:41;20.60;48.70
15609;DHT22;64278;45.642;13.756;2023-02-28T04:54:06;20.50;48.60
15609;DHT22;64278;45.642;13.756;2023-02-28T04:56:33;20.60;48.60
15609;DHT22;64278;45.642;13.756;2023-02-28T04:58:59;20.60;48.60
15609;DHT22;64278;45.642;13.756;2023-02-28T05:01:28;20.60;48.70
15609;DHT22;64278;45.642;13.756;2023-02-28T05:03:56;20.50;48.70
15609;DHT22;64278;45.642;13.756;2023-02-28T05:06:24;20.50;49.30
15609;DHT22;64278;45.642;13.756;2023-02-28T05:08:50;20.50;48.60
15609;DHT22;64278;45.642;13.756;2023-02-28T05:11:22;20.50;48.60
15609;DHT22;64278;45.642;13.756;2023-02-28T05:13:49;20.50;48.60
15609;DHT22;64278;45.642;13.756;2023-02-28T05:16:15;20.50;48.60
15609;DHT22;64278;45.642;13.756;2023-02-28T05:18:40;20.50;48.70
15609;DHT22;64278;45.642;13.756;2023-02-28T05:21:23;20.50;48.60
15609;DHT22;64278;45.642;13.756;2023-02-28T05:23:52;20.50;48.60
15609;DHT22;64278;45.642;13.756;2023-02-28T05:26:18;20.50;48.70
15609;DHT22;64278;45.642;13.756;2023-02-28T05:28:44;20.50;48.70
15609;DHT22;64278;45.642;13.756;2023-02-28T05:31:13;20.40;48.50
15609;DHT22;64278;45.642;13.756;2023-02-28T05:33:39;20.50;48.60
15609;DHT22;64278;45.642;13.756;2023-02-28T05:36:05;20.40;48.60
15609;DHT22;64278;45.642;13.756;2023-02-28T05:38:31;20.40;48.50
15609;DHT22;64278;45.642;13.756;2023-02-28T05:40:57;20.40;48.50
15609;DHT22;64278;45.642;13.756;2023-02-28T05:43:23;20.40;48.50
15609;DHT22;64278;45.642;13.756;2023-02-28T05:45:48;20.40;48.50
15609;DHT22;64278;45.642;13.756;2023-02-28T05:48:14;20.40;48.50
15609;DHT22;64278;45.642;13.756;2023-02-28T05:50:40;20.40;48.50
15609;DHT22;64278;45.642;13.756;2023-02-28T05:53:08;20.40;48.50
15609;DHT22;64278;45.642;13.756;2023-02-28T05:55:33;20.40;48.50
15609;DHT22;64278;45.642;13.756;2023-02-28T05:58:01;20.40;48.50
15609;DHT22;64278;45.642;13.756;2023-02-28T06:00:27;20.40;48.50
15609;DHT22;64278;45.642;13.756;2023-02-28T06:02:53;20.40;48.50
15609;DHT22;64278;45.642;13.756;2023-02-28T06:05:22;20.40;48.60
15609;DHT22;64278;45.642;13.756;2023-02-28T06:07:47;20.30;48.50
15609;DHT22;64278;45.642;13.756;2023-02-28T06:10:13;20.40;48.50
15609;DHT22;64278;45.642;13.756;2023-02-28T06:12:39;20.30;48.50
15609;DHT22;64278;45.642;13.756;2023-02-28T06:15:07;20.40;48.40
15609;DHT22;64278;45.642;13.756;2023-02-28T06:17:36;20.40;48.40
15609;DHT22;64278;45.642;13.756;2023-02-28T06:20:02;20.40;48.40
15609;DHT22;64278;45.642;13.756;2023-02-28T06:22:28;20.40;48.40
15609;DHT22;64278;45.642;13.756;2023-02-28T06:24:54;20.50;48.50
15609;DHT22;64278;45.642;13.756;2023-02-28T06:27:20;20.50;48.40
15609;DHT22;64278;45.642;13.756;2023-02-28T06:29:46;20.50;47.80
15609;DHT22;64278;45.642;13.756;2023-02-28T06:32:11;20.50;46.10
15609;DHT22;64278;45.642;13.756;2023-02-28T06:34:37;20.50;44.90
15609;DHT22;64278;45.642;13.756;2023-02-28T06:37:02;20.40;45.40
15609;DHT22;64278;45.642;13.756;2023-02-28T06:39:29;20.50;46.30
15609;DHT22;64278;45.642;13.756;2023-02-28T06:41:55;20.60;46.30
15609;DHT22;64278;45.642;13.756;2023-02-28T06:44:21;20.60;46.10
15609;DHT22;64278;45.642;13.756;2023-02-28T06:46:48;20.70;46.30
15609;DHT22;64278;45.642;13.756;2023-02-28T06:49:15;20.80;46.80
15609;DHT22;64278;45.642;13.756;2023-02-28T06:51:42;20.80;47.20
15609;DHT22;64278;45.642;13.756;2023-02-28T06:54:10;20.80;47.60
15609;DHT22;64278;45.642;13.756;2023-02-28T06:56:36;20.90;47.90
15609;DHT22;64278;45.642;13.756;2023-02-28T06:59:02;20.90;48.10
15609;DHT22;64278;45.642;13.756;2023-02-28T07:01:29;20.90;48.20
15609;DHT22;64278;45.642;13.756;2023-02-28T07:03:54;20.90;48.40
15609;DHT22;64278;45.642;13.756;2023-02-28T07:06:24;21.00;48.60
15609;DHT22;64278;45.642;13.756;2023-02-28T07:08:50;21.00;48.60
15609;DHT22;64278;45.642;13.756;2023-02-28T07:11:17;21.00;48.60
15609;DHT22;64278;45.642;13.756;2023-02-28T07:13:43;21.00;48.60
15609;DHT22;64278;45.642;13.756;2023-02-28T07:16:10;21.00;48.70
15609;DHT22;64278;45.642;13.756;2023-02-28T07:18:37;21.00;48.70
15609;DHT22;64278;45.642;13.756;2023-02-28T07:21:04;20.90;48.50
15609;DHT22;64278;45.642;13.756;2023-02-28T07:23:31;20.90;48.50
15609;DHT22;64278;45.642;13.756;2023-02-28T07:25:57;20.90;48.40
15609;DHT22;64278;45.642;13.756;2023-02-28T07:28:23;20.90;48.30
15609;DHT22;64278;45.642;13.756;2023-02-28T07:30:48;20.90;48.30
15609;DHT22;64278;45.642;13.756;2023-02-28T07:33:14;20.90;48.20
15609;DHT22;64278;45.642;13.756;2023-02-28T07:35:40;20.90;48.20
15609;DHT22;64278;45.642;13.756;2023-02-28T07:38:06;20.90;48.10
15609;DHT22;64278;45.642;13.756;2023-02-28T07:40:33;20.90;48.00
15609;DHT22;64278;45.642;13.756;2023-02-28T07:43:00;20.90;47.90
15609;DHT22;64278;45.642;13.756;2023-02-28T07:45:26;20.90;47.90
15609;DHT22;64278;45.642;13.756;2023-02-28T07:47:54;20.90;47.90
15609;DHT22;64278;45.642;13.756;2023-02-28T07:50:20;20.90;47.90
15609;DHT22;64278;45.642;13.756;2023-02-28T07:52:46;20.90;47.90
15609;DHT22;64278;45.642;13.756;2023-02-28T07:55:12;20.80;47.80
15609;DHT22;64278;45.642;13.756;2023-02-28T07:57:39;20.80;47.80
15609;DHT22;64278;45.642;13.756;2023-02-28T08:00:07;20.90;47.80
15609;DHT22;64278;45.642;13.756;2023-02-28T08:02:35;20.80;47.70
15609;DHT22;64278;45.642;13.756;2023-02-28T08:05:00;20.80;47.70
15609;DHT22;64278;45.642;13.756;2023-02-28T08:07:26;20.80;47.70
15609;DHT22;64278;45.642;13.756;2023-02-28T08:09:52;20.80;47.70
15609;DHT22;64278;45.642;13.756;2023-02-28T08:12:18;20.80;47.70
15609;DHT22;64278;45.642;13.756;2023-02-28T08:14:43;20.80;47.70
15609;DHT22;64278;45.642;13.756;2023-02-28T08:17:10;20.80;47.70
15609;DHT22;64278;45.642;13.756;2023-02-28T08:19:36;20.80;47.70
15609;DHT22;64278;45.642;13.756;2023-02-28T08:22:01;20.80;47.70
15609;DHT22;64278;45.642;13.756;2023-02-28T08:24:27;20.80;47.70
15609;DHT22;64278;45.642;13.756;2023-02-28T08:26:53;20.80;47.70
15609;DHT22;64278;45.642;13.756;2023-02-28T08:29:18;20.80;47.70
15609;DHT22;64278;45.642;13.756;2023-02-28T08:31:44;20.80;47.70
15609;DHT22;64278;45.642;13.756;2023-02-28T08:34:12;20.80;47.70
15609;DHT22;64278;45.642;13.756;2023-02-28T08:36:38;20.80;47.70
15609;DHT22;64278;45.642;13.756;2023-02-28T08:39:05;20.70;47.70
15609;DHT22;64278;45.642;13.756;2023-02-28T08:41:31;20.80;47.70
15609;DHT22;64278;45.642;13.756;2023-02-28T08:43:57;20.70;47.70
15609;DHT22;64278;45.642;13.756;2023-02-28T08:46:23;20.70;47.70
15609;DHT22;64278;45.642;13.756;2023-02-28T08:48:52;20.70;48.30
15609;DHT22;64278;45.642;13.756;2023-02-28T08:51:19;20.70;47.70
15609;DHT22;64278;45.642;13.756;2023-02-28T08:53:52;20.70;47.70
15609;DHT22;64278;45.642;13.756;2023-02-28T08:56:18;20.70;47.70
15609;DHT22;64278;45.642;13.756;2023-02-28T08:58:45;20.70;48.40
15609;DHT22;64278;45.642;13.756;2023-02-28T09:01:19;20.70;47.60
15609;DHT22;64278;45.642;13.756;2023-02-28T09:03:46;20.70;47.70
15609;DHT22;64278;45.642;13.756;2023-02-28T09:06:14;20.70;47.70
15609;DHT22;64278;45.642;13.756;2023-02-28T09:08:40;20.70;47.80
15609;DHT22;64278;45.642;13.756;2023-02-28T09:11:06;20.70;47.70
15609;DHT22;64278;45.642;13.756;2023-02-28T09:13:32;20.60;48.20
15609;DHT22;64278;45.642;13.756;2023-02-28T09:15:59;20.70;47.50
15609;DHT22;64278;45.642;13.756;2023-02-28T09:18:26;20.60;47.50
15609;DHT22;64278;45.642;13.756;2023-02-28T09:20:52;20.60;47.40
15609;DHT22;64278;45.642;13.756;2023-02-28T09:23:18;20.60;47.30
15609;DHT22;64278;45.642;13.756;2023-02-28T09:25:51;20.60;47.40
15609;DHT22;64278;45.642;13.756;2023-02-28T09:28:17;20.60;47.40
15609;DHT22;64278;45.642;13.756;2023-02-28T09:30:45;20.60;47.40
15609;DHT22;64278;45.642;13.756;2023-02-28T09:33:12;20.60;47.50
15609;DHT22;64278;45.642;13.756;2023-02-28T09:35:37;20.60;47.60
15609;DHT22;64278;45.642;13.756;2023-02-28T09:38:04;20.60;47.70
15609;DHT22;64278;45.642;13.756;2023-02-28T09:40:30;20.60;47.60
15609;DHT22;64278;45.642;13.756;2023-02-28T09:42:57;20.60;47.70
15609;DHT22;64278;45.642;13.756;2023-02-28T09:45:35;20.60;47.60
15609;DHT22;64278;45.642;13.756;2023-02-28T09:48:08;20.60;47.70
15609;DHT22;64278;45.642;13.756;2023-02-28T09:50:40;20.60;47.60
15609;DHT22;64278;45.642;13.756;2023-02-28T09:53:26;20.60;47.40
15609;DHT22;64278;45.642;13.756;2023-02-28T09:55:58;20.60;47.50
15609;DHT22;64278;45.642;13.756;2023-02-28T09:58:32;20.60;47.40
15609;DHT22;64278;45.642;13.756;2023-02-28T10:07:32;20.50;47.40
15609;DHT22;64278;45.642;13.756;2023-02-28T10:10:07;20.50;47.40
15609;DHT22;64278;45.642;13.756;2023-02-28T10:12:43;20.50;47.40
15609;DHT22;64278;45.642;13.756;2023-02-28T10:15:14;20.50;47.40
15609;DHT22;64278;45.642;13.756;2023-02-28T10:17:44;20.50;47.40
15609;DHT22;64278;45.642;13.756;2023-02-28T10:20:20;20.50;47.40
15609;DHT22;64278;45.642;13.756;2023-02-28T10:25:24;20.50;47.50
15609;DHT22;64278;45.642;13.756;2023-02-28T10:27:53;20.50;47.40
15609;DHT22;64278;45.642;13.756;2023-02-28T10:30:19;20.50;47.40
15609;DHT22;64278;45.642;13.756;2023-02-28T10:32:50;20.50;47.40
15609;DHT22;64278;45.642;13.756;2023-02-28T10:35:24;20.50;47.40
15609;DHT22;64278;45.642;13.756;2023-02-28T10:37:56;20.50;47.40
15609;DHT22;64278;45.642;13.756;2023-02-28T10:42:56;20.50;47.40
15609;DHT22;64278;45.642;13.756;2023-02-28T10:45:22;20.50;47.40
15609;DHT22;64278;45.642;13.756;2023-02-28T10:48:01;20.50;47.40
15609;DHT22;64278;45.642;13.756;2023-02-28T10:52:53;20.40;47.30
15609;DHT22;64278;45.642;13.756;2023-02-28T10:55:21;20.50;47.40
15609;DHT22;64278;45.642;13.756;2023-02-28T10:57:49;20.40;47.30
15609;DHT22;64278;45.642;13.756;2023-02-28T11:00:19;20.40;48.00
15609;DHT22;64278;45.642;13.756;2023-02-28T11:02:45;20.40;47.30
15609;DHT22;64278;45.642;13.756;2023-02-28T11:07:59;20.40;47.30
15609;DHT22;64278;45.642;13.756;2023-02-28T11:10:30;20.40;47.30
15609;DHT22;64278;45.642;13.756;2023-02-28T11:13:00;20.40;47.30
15609;DHT22;64278;45.642;13.756;2023-02-28T11:15:30;20.40;47.60
15609;DHT22;64278;45.642;13.756;2023-02-28T11:20:48;20.40;47.40
15609;DHT22;64278;45.642;13.756;2023-02-28T11:23:16;20.40;47.40
15609;DHT22;64278;45.642;13.756;2023-02-28T11:25:51;20.40;47.40
15609;DHT22;64278;45.642;13.756;2023-02-28T11:28:37;20.40;47.60
15609;DHT22;64278;45.642;13.756;2023-02-28T11:36:15;20.40;48.30
15609;DHT22;64278;45.642;13.756;2023-02-28T11:38:41;20.50;48.90
15609;DHT22;64278;45.642;13.756;2023-02-28T11:44:04;20.60;49.60
15609;DHT22;64278;45.642;13.756;2023-02-28T11:46:47;20.60;50.60
15609;DHT22;64278;45.642;13.756;2023-02-28T12:00:28;21.00;52.70
15609;DHT22;64278;45.642;13.756;2023-02-28T12:12:06;21.30;56.00
15609;DHT22;64278;45.642;13.756;2023-02-28T12:17:36;21.40;57.50
15609;DHT22;64278;45.642;13.756;2023-02-28T12:27:54;21.40;57.80
15609;DHT22;64278;45.642;13.756;2023-02-28T13:22:59;21.30;55.50
15609;DHT22;64278;45.642;13.756;2023-02-28T13:28:12;21.30;54.80
15609;DHT22;64278;45.642;13.756;2023-02-28T13:52:06;21.20;53.40
15609;DHT22;64278;45.642;13.756;2023-02-28T13:58:03;21.20;53.10
15609;DHT22;64278;45.642;13.756;2023-02-28T14:13:54;21.10;52.30
15609;DHT22;64278;45.642;13.756;2023-02-28T14:16:24;21.20;52.20
15609;DHT22;64278;45.642;13.756;2023-02-28T14:21:33;21.10;52.00
15609;DHT22;64278;45.642;13.756;2023-02-28T14:37:34;21.10;52.00
15609;DHT22;64278;45.642;13.756;2023-02-28T14:40:04;21.10;52.00
15609;DHT22;64278;45.642;13.756;2023-02-28T14:42:34;21.10;51.80
15609;DHT22;64278;45.642;13.756;2023-02-28T14:45:00;21.10;51.80
15609;DHT22;64278;45.642;13.756;2023-02-28T14:47:30;21.00;51.80
15609;DHT22;64278;45.642;13.756;2023-02-28T14:49:58;21.00;51.70
15609;DHT22;64278;45.642;13.756;2023-02-28T14:52:27;21.00;51.70
15609;DHT22;64278;45.642;13.756;2023-02-28T14:55:15;21.00;51.60
15609;DHT22;64278;45.642;13.756;2023-02-28T14:57:54;21.00;51.60
15609;DHT22;64278;45.642;13.756;2023-02-28T15:00:29;21.00;51.40
15609;DHT22;64278;45.642;13.756;2023-02-28T15:02:56;21.00;52.00
15609;DHT22;64278;45.642;13.756;2023-02-28T15:08:19;21.00;51.40
15609;DHT22;64278;45.642;13.756;2023-02-28T15:13:26;21.00;51.20
15609;DHT22;64278;45.642;13.756;2023-02-28T15:15:57;20.90;51.10
15609;DHT22;64278;45.642;13.756;2023-02-28T15:21:12;20.90;51.10
15609;DHT22;64278;45.642;13.756;2023-02-28T15:23:41;20.90;51.10
15609;DHT22;64278;45.642;13.756;2023-02-28T15:26:13;20.90;50.90
15609;DHT22;64278;45.642;13.756;2023-02-28T15:28:39;20.90;50.90
15609;DHT22;64278;45.642;13.756;2023-02-28T15:31:23;20.90;50.70
15609;DHT22;64278;45.642;13.756;2023-02-28T15:33:58;20.90;50.70
15609;DHT22;64278;45.642;13.756;2023-02-28T15:36:30;20.90;50.70
15609;DHT22;64278;45.642;13.756;2023-02-28T15:39:00;20.90;50.70
15609;DHT22;64278;45.642;13.756;2023-02-28T15:41:30;20.90;50.70
15609;DHT22;64278;45.642;13.756;2023-02-28T15:46:53;20.90;50.70
15609;DHT22;64278;45.642;13.756;2023-02-28T15:49:21;20.80;50.70
15609;DHT22;64278;45.642;13.756;2023-02-28T15:51:49;20.80;50.70
15609;DHT22;64278;45.642;13.756;2023-02-28T15:54:29;20.80;50.80
15609;DHT22;64278;45.642;13.756;2023-02-28T15:56:57;20.80;50.80
15609;DHT22;64278;45.642;13.756;2023-02-28T15:59:28;20.80;50.80
15609;DHT22;64278;45.642;13.756;2023-02-28T16:07:28;20.80;50.90
15609;DHT22;64278;45.642;13.756;2023-02-28T16:09:54;20.80;50.90
15609;DHT22;64278;45.642;13.756;2023-02-28T16:12:21;20.80;50.90
15609;DHT22;64278;45.642;13.756;2023-02-28T16:14:52;20.80;51.00
15609;DHT22;64278;45.642;13.756;2023-02-28T16:17:23;20.70;51.00
15609;DHT22;64278;45.642;13.756;2023-02-28T16:19:50;20.80;51.00
15609;DHT22;64278;45.642;13.756;2023-02-28T16:22:16;20.70;51.10
15609;DHT22;64278;45.642;13.756;2023-02-28T16:24:41;20.70;51.20
15609;DHT22;64278;45.642;13.756;2023-02-28T16:27:16;20.70;51.40
15609;DHT22;64278;45.642;13.756;2023-02-28T16:29:42;20.70;51.50
15609;DHT22;64278;45.642;13.756;2023-02-28T16:32:07;20.70;51.80
15609;DHT22;64278;45.642;13.756;2023-02-28T16:34:33;20.70;52.00
15609;DHT22;64278;45.642;13.756;2023-02-28T16:36:59;20.70;52.10
15609;DHT22;64278;45.642;13.756;2023-02-28T16:39:25;20.70;52.50
15609;DHT22;64278;45.642;13.756;2023-02-28T16:41:51;20.70;53.00
15609;DHT22;64278;45.642;13.756;2023-02-28T16:44:32;20.70;53.40
15609;DHT22;64278;45.642;13.756;2023-02-28T16:47:03;20.70;54.10
15609;DHT22;64278;45.642;13.756;2023-02-28T16:49:29;20.70;54.60
15609;DHT22;64278;45.642;13.756;2023-02-28T16:51:55;20.70;54.90
15609;DHT22;64278;45.642;13.756;2023-02-28T16:54:21;20.70;55.10
15609;DHT22;64278;45.642;13.756;2023-02-28T16:56:48;20.60;55.20
15609;DHT22;64278;45.642;13.756;2023-02-28T16:59:22;20.60;55.20
15609;DHT22;64278;45.642;13.756;2023-02-28T17:01:48;20.70;55.20
15609;DHT22;64278;45.642;13.756;2023-02-28T17:04:15;20.60;55.10
15609;DHT22;64278;45.642;13.756;2023-02-28T17:06:41;20.60;55.80
15609;DHT22;64278;45.642;13.756;2023-02-28T17:09:17;20.60;55.20
15609;DHT22;64278;45.642;13.756;2023-02-28T17:11:43;20.60;55.30
15609;DHT22;64278;45.642;13.756;2023-02-28T17:14:09;20.70;55.50
15609;DHT22;64278;45.642;13.756;2023-02-28T17:16:37;20.70;55.40
15609;DHT22;64278;45.642;13.756;2023-02-28T17:19:11;20.70;55.50
15609;DHT22;64278;45.642;13.756;2023-02-28T17:21:37;20.70;55.60
15609;DHT22;64278;45.642;13.756;2023-02-28T17:24:04;20.70;55.90
15609;DHT22;64278;45.642;13.756;2023-02-28T17:26:30;20.70;55.90
15609;DHT22;64278;45.642;13.756;2023-02-28T17:28:57;20.60;55.90
15609;DHT22;64278;45.642;13.756;2023-02-28T17:31:24;20.60;55.90
15609;DHT22;64278;45.642;13.756;2023-02-28T17:33:50;20.60;55.90
15609;DHT22;64278;45.642;13.756;2023-02-28T17:36:20;20.60;55.90
15609;DHT22;64278;45.642;13.756;2023-02-28T17:38:51;20.60;55.70
15609;DHT22;64278;45.642;13.756;2023-02-28T17:41:17;20.60;55.50
15609;DHT22;64278;45.642;13.756;2023-02-28T17:43:43;20.60;55.30
15609;DHT22;64278;45.642;13.756;2023-02-28T17:46:16;20.60;55.00
15609;DHT22;64278;45.642;13.756;2023-02-28T17:48:43;20.60;54.80
15609;DHT22;64278;45.642;13.756;2023-02-28T17:51:12;20.70;54.60
15609;DHT22;64278;45.642;13.756;2023-02-28T17:53:38;20.70;54.40
15609;DHT22;64278;45.642;13.756;2023-02-28T17:56:04;20.80;54.10
15609;DHT22;64278;45.642;13.756;2023-02-28T17:58:29;20.80;54.00
15609;DHT22;64278;45.642;13.756;2023-02-28T18:00:56;20.90;53.90
15609;DHT22;64278;45.642;13.756;2023-02-28T18:03:22;20.90;53.70
15609;DHT22;64278;45.642;13.756;2023-02-28T18:05:49;21.00;53.60
15609;DHT22;64278;45.642;13.756;2023-02-28T18:08:15;21.00;53.50
15609;DHT22;64278;45.642;13.756;2023-02-28T18:10:41;21.00;53.50
15609;DHT22;64278;45.642;13.756;2023-02-28T18:13:07;21.10;53.50
15609;DHT22;64278;45.642;13.756;2023-02-28T18:15:33;21.10;53.50
15609;DHT22;64278;45.642;13.756;2023-02-28T18:17:59;21.10;53.50
15609;DHT22;64278;45.642;13.756;2023-02-28T18:20:24;21.10;53.30
15609;DHT22;64278;45.642;13.756;2023-02-28T18:22:53;21.10;53.20
15609;DHT22;64278;45.642;13.756;2023-02-28T18:25:19;21.10;53.10
15609;DHT22;64278;45.642;13.756;2023-02-28T18:27:45;21.10;53.00
15609;DHT22;64278;45.642;13.756;2023-02-28T18:30:28;21.20;52.90
15609;DHT22;64278;45.642;13.756;2023-02-28T18:32:57;21.10;52.70
15609;DHT22;64278;45.642;13.756;2023-02-28T18:35:24;21.10;52.60
15609;DHT22;64278;45.642;13.756;2023-02-28T18:38:13;21.10;52.40
15609;DHT22;64278;45.642;13.756;2023-02-28T18:40:41;21.10;52.10
15609;DHT22;64278;45.642;13.756;2023-02-28T18:43:08;21.20;52.10
15609;DHT22;64278;45.642;13.756;2023-02-28T18:45:37;21.20;51.90
15609;DHT22;64278;45.642;13.756;2023-02-28T18:48:03;21.20;51.80
15609;DHT22;64278;45.642;13.756;2023-02-28T18:50:30;21.20;51.70
15609;DHT22;64278;45.642;13.756;2023-02-28T18:52:55;21.20;51.60
15609;DHT22;64278;45.642;13.756;2023-02-28T18:55:23;21.20;51.50
15609;DHT22;64278;45.642;13.756;2023-02-28T18:57:52;21.30;51.50
15609;DHT22;64278;45.642;13.756;2023-02-28T19:00:18;21.30;51.50
15609;DHT22;64278;45.642;13.756;2023-02-28T19:02:48;21.30;51.30
15609;DHT22;64278;45.642;13.756;2023-02-28T19:05:15;21.30;51.30
15609;DHT22;64278;45.642;13.756;2023-02-28T19:07:41;21.30;51.30
15609;DHT22;64278;45.642;13.756;2023-02-28T19:10:08;21.30;51.30
15609;DHT22;64278;45.642;13.756;2023-02-28T19:12:37;21.40;51.80
15609;DHT22;64278;45.642;13.756;2023-02-28T19:15:04;21.40;52.20
15609;DHT22;64278;45.642;13.756;2023-02-28T19:17:30;21.40;52.50
15609;DHT22;64278;45.642;13.756;2023-02-28T19:19:56;21.50;52.80
15609;DHT22;64278;45.642;13.756;2023-02-28T19:22:22;21.50;52.80
15609;DHT22;64278;45.642;13.756;2023-02-28T19:24:49;21.50;52.90
15609;DHT22;64278;45.642;13.756;2023-02-28T19:27:16;21.50;53.00
15609;DHT22;64278;45.642;13.756;2023-02-28T19:29:47;21.50;53.00
15609;DHT22;64278;45.642;13.756;2023-02-28T19:32:14;21.50;53.10
15609;DHT22;64278;45.642;13.756;2023-02-28T19:34:40;21.50;53.20
15609;DHT22;64278;45.642;13.756;2023-02-28T19:37:05;21.50;53.30
15609;DHT22;64278;45.642;13.756;2023-02-28T19:39:31;21.50;53.20
15609;DHT22;64278;45.642;13.756;2023-02-28T19:42:10;21.50;53.30
15609;DHT22;64278;45.642;13.756;2023-02-28T19:44:37;21.50;53.20
15609;DHT22;64278;45.642;13.756;2023-02-28T19:47:03;21.50;53.20
15609;DHT22;64278;45.642;13.756;2023-02-28T19:49:29;21.50;53.10
15609;DHT22;64278;45.642;13.756;2023-02-28T19:51:54;21.50;53.10